Time;durP1;ratioP1;P1;durP2;ratioP2;P2;SDS_P1;SDS_P2;PMS_P1;PMS_P2;Temp;Humidity;BMP_temperature;BMP_pressure;BME280_temperature;BME280_humidity;BME280_pressure;Samples;Min_cycle;Max_cycle;Signal;HPM_P1;HPM_P2
2022/03/01 00:01:43;;;;;;;;;;;;;;;21.47;40.91;103024.56;5079009;28;2243;-64
2022/03/01 00:04:10;;;;;;;;;;;;;;;21.49;40.87;103021.84;5079930;28;2084;-65
2022/03/01 00:06:36;;;;;;;;;;;;;;;21.47;41.09;103019.56;5075069;28;2398;-65
2022/03/01 00:09:02;;;;;;;;;;;;;;;21.47;40.91;103025.31;5074388;28;1477;-64
2022/03/01 00:11:29;;;;;;;;;;;;;;;21.47;41.29;103024.56;5060894;28;2220;-65
2022/03/01 00:13:55;;;;;;;;;;;;;;;21.48;41.26;103029.69;5078377;28;2231;-64
2022/03/01 00:16:22;;;;;;;;;;;;;;;21.49;41.28;103027.59;5072223;28;2163;-64
2022/03/01 00:18:48;;;;;;;;;;;;;;;21.50;41.05;103020.47;5077795;28;2161;-64
2022/03/01 00:21:15;;;;;;;;;;;;;;;21.49;41.40;103018.94;5078141;28;2148;-64
2022/03/01 00:23:41;;;;;;;;;;;;;;;21.48;41.17;103023.19;5076626;28;2240;-64
2022/03/01 00:26:07;;;;;;;;;;;;;;;21.48;41.36;103020.31;5077348;28;2172;-64
2022/03/01 00:28:34;;;;;;;;;;;;;;;21.48;41.17;103011.66;5079876;28;2633;-64
2022/03/01 00:31:00;;;;;;;;;;;;;;;21.46;41.15;103005.72;5083639;28;2056;-65
2022/03/01 00:33:27;;;;;;;;;;;;;;;21.46;41.15;103011.50;5086069;28;2203;-64
2022/03/01 00:35:53;;;;;;;;;;;;;;;21.47;41.07;103001.50;5075648;28;2000;-65
2022/03/01 00:38:19;;;;;;;;;;;;;;;21.47;40.96;103001.50;5080546;28;2231;-65
2022/03/01 00:40:46;;;;;;;;;;;;;;;21.45;40.98;102993.44;5086559;28;2271;-65
2022/03/01 00:43:12;;;;;;;;;;;;;;;21.44;41.24;102988.28;5078577;28;2177;-64
2022/03/01 00:45:39;;;;;;;;;;;;;;;21.46;41.20;103002.84;5081273;28;1943;-64
2022/03/01 00:48:06;;;;;;;;;;;;;;;21.44;41.01;103002.69;5081691;28;2327;-65
2022/03/01 00:50:32;;;;;;;;;;;;;;;21.43;40.92;103001.94;5078641;28;2086;-64
2022/03/01 00:52:59;;;;;;;;;;;;;;;21.43;41.02;102995.41;5084256;28;2053;-64
2022/03/01 00:55:25;;;;;;;;;;;;;;;21.43;41.02;103001.19;5086746;28;2070;-64
2022/03/01 00:57:51;;;;;;;;;;;;;;;21.43;41.12;103007.69;5080579;28;2235;-65
2022/03/01 01:00:18;;;;;;;;;;;;;;;21.44;41.04;102997.72;5080918;28;2349;-64
2022/03/01 01:02:44;;;;;;;;;;;;;;;21.45;40.82;102999.22;5083282;28;2108;-64
2022/03/01 01:05:11;;;;;;;;;;;;;;;21.46;41.18;102999.97;5076734;28;2235;-65
2022/03/01 01:07:37;;;;;;;;;;;;;;;21.46;40.84;102988.44;5079560;28;2377;-64
2022/03/01 01:10:03;;;;;;;;;;;;;;;21.44;41.27;102994.81;5079884;28;2259;-65
2022/03/01 01:12:30;;;;;;;;;;;;;;;21.44;41.06;103002.69;5076434;28;2357;-64
2022/03/01 01:14:56;;;;;;;;;;;;;;;21.45;41.36;103004.22;5061047;28;2547;-65
2022/03/01 01:17:22;;;;;;;;;;;;;;;21.45;41.42;102998.47;5077136;28;2331;-65
2022/03/01 01:19:49;;;;;;;;;;;;;;;21.44;40.97;102988.28;5078788;28;2200;-64
2022/03/01 01:25:00;;;;;;;;;;;;;;;21.44;41.07;103003.47;5081548;28;2287;-64
2022/03/01 01:27:27;;;;;;;;;;;;;;;21.44;40.83;102996.94;5082205;28;2216;-64
2022/03/01 01:29:53;;;;;;;;;;;;;;;21.43;41.00;102990.41;5083470;28;2116;-64
2022/03/01 01:32:19;;;;;;;;;;;;;;;21.44;40.90;102985.41;5076330;28;2129;-64
2022/03/01 01:34:46;;;;;;;;;;;;;;;21.44;41.05;102985.41;5075050;28;2161;-64
2022/03/01 01:37:12;;;;;;;;;;;;;;;21.43;41.01;102984.63;5078935;28;2295;-64
2022/03/01 01:39:38;;;;;;;;;;;;;;;21.41;41.29;102986.63;5077640;28;2144;-64
2022/03/01 01:42:05;;;;;;;;;;;;;;;21.41;41.22;102980.84;5081576;28;2251;-64
2022/03/01 01:44:31;;;;;;;;;;;;;;;21.41;41.14;102983.72;5077923;28;2286;-64
2022/03/01 01:46:58;;;;;;;;;;;;;;;21.42;41.14;102980.25;5080325;28;2086;-64
2022/03/01 01:49:24;;;;;;;;;;;;;;;21.40;41.03;102982.19;5081050;28;2220;-64
2022/03/01 01:51:50;;;;;;;;;;;;;;;21.39;41.00;102980.66;5078274;28;2165;-64
2022/03/01 01:54:17;;;;;;;;;;;;;;;21.39;40.91;102972.00;5079937;28;2267;-64
2022/03/01 01:56:44;;;;;;;;;;;;;;;21.40;41.20;102973.56;5079900;28;2211;-64
2022/03/01 01:59:10;;;;;;;;;;;;;;;21.40;40.92;102985.09;5067476;28;2281;-64
2022/03/01 02:01:37;;;;;;;;;;;;;;;21.40;41.15;102982.19;5080527;28;2504;-64
2022/03/01 02:04:04;;;;;;;;;;;;;;;21.38;41.24;102982.03;5081818;28;1952;-64
2022/03/01 02:06:30;;;;;;;;;;;;;;;21.40;41.15;102979.31;5082687;28;2259;-64
2022/03/01 02:08:57;;;;;;;;;;;;;;;21.39;41.26;102972.78;5075750;28;2059;-64
2022/03/01 02:11:26;;;;;;;;;;;;;;;21.39;41.27;102963.38;5078107;28;2302;-64
2022/03/01 02:13:52;;;;;;;;;;;;;;;21.39;41.26;102963.38;5074260;28;1980;-64
2022/03/01 02:16:18;;;;;;;;;;;;;;;21.39;41.08;102972.00;5083073;28;2279;-64
2022/03/01 02:18:45;;;;;;;;;;;;;;;21.37;41.27;102969.72;5073060;28;2029;-64
2022/03/01 02:21:11;;;;;;;;;;;;;;;21.38;41.03;102971.25;5082476;28;2220;-64
2022/03/01 02:23:38;;;;;;;;;;;;;;;21.38;41.18;102970.50;5078753;28;1985;-64
2022/03/01 02:26:05;;;;;;;;;;;;;;;21.38;41.14;102970.50;5078221;28;2131;-64
2022/03/01 02:28:32;;;;;;;;;;;;;;;21.38;40.94;102959.75;5071449;28;2453;-64
2022/03/01 02:30:59;;;;;;;;;;;;;;;21.39;41.07;102969.13;5075427;28;2201;-64
2022/03/01 02:33:25;;;;;;;;;;;;;;;21.37;40.92;102952.44;5078072;28;2099;-64
2022/03/01 02:35:51;;;;;;;;;;;;;;;21.38;41.13;102950.34;5077384;28;2054;-64
2022/03/01 02:38:18;;;;;;;;;;;;;;;21.38;40.83;102953.22;5079581;28;2259;-64
2022/03/01 02:40:44;;;;;;;;;;;;;;;21.36;41.04;102950.19;5082988;28;2306;-64
2022/03/01 02:43:10;;;;;;;;;;;;;;;21.36;41.00;102955.94;5074977;28;2180;-64
2022/03/01 02:45:37;;;;;;;;;;;;;;;21.34;41.07;102948.66;5083809;28;2146;-64
2022/03/01 02:48:03;;;;;;;;;;;;;;;21.32;41.00;102942.72;5080628;28;2320;-64
2022/03/01 02:50:29;;;;;;;;;;;;;;;21.33;40.82;102940.63;5079903;28;2084;-64
2022/03/01 02:52:56;;;;;;;;;;;;;;;21.34;40.75;102942.88;5080459;28;2337;-64
2022/03/01 02:55:22;;;;;;;;;;;;;;;21.36;40.80;102959.56;5079016;28;2270;-64
2022/03/01 02:57:48;;;;;;;;;;;;;;;21.36;40.93;102953.81;5080523;28;2243;-64
2022/03/01 03:00:15;;;;;;;;;;;;;;;21.36;40.98;102958.81;5077498;28;2357;-64
2022/03/01 03:02:42;;;;;;;;;;;;;;;21.36;41.10;102955.94;5083251;28;2350;-64
2022/03/01 03:05:08;;;;;;;;;;;;;;;21.34;41.14;102953.66;5079812;28;2259;-64
2022/03/01 03:07:35;;;;;;;;;;;;;;;21.34;41.11;102965.19;5080712;28;2361;-64
2022/03/01 03:10:01;;;;;;;;;;;;;;;21.36;41.05;102950.19;5084372;28;2348;-64
2022/03/01 03:12:28;;;;;;;;;;;;;;;21.34;41.11;102954.41;5080183;28;2317;-64
2022/03/01 03:14:55;;;;;;;;;;;;;;;21.33;41.04;102964.44;5068627;28;2183;-64
2022/03/01 03:17:22;;;;;;;;;;;;;;;21.32;40.84;102951.38;5074315;28;2272;-64
2022/03/01 03:19:48;;;;;;;;;;;;;;;21.33;40.99;102963.69;5074526;28;2267;-64
2022/03/01 03:22:15;;;;;;;;;;;;;;;21.33;40.83;102955.03;5082604;28;2299;-64
2022/03/01 03:24:41;;;;;;;;;;;;;;;21.32;40.66;102942.72;5077332;28;2121;-64
2022/03/01 03:27:07;;;;;;;;;;;;;;;21.32;40.79;102939.09;5074265;28;2266;-64
2022/03/01 03:29:34;;;;;;;;;;;;;;;21.32;40.87;102939.84;5078665;28;2215;-64
2022/03/01 03:32:00;;;;;;;;;;;;;;;21.31;40.97;102944.09;5079419;28;2172;-64
2022/03/01 03:34:27;;;;;;;;;;;;;;;21.30;40.97;102942.59;5076225;28;1802;-64
2022/03/01 03:36:53;;;;;;;;;;;;;;;21.30;40.81;102942.59;5076219;28;2239;-64
2022/03/01 03:39:19;;;;;;;;;;;;;;;21.28;40.79;102939.56;5078125;28;1962;-64
2022/03/01 03:41:46;;;;;;;;;;;;;;;21.29;40.79;102946.81;5079890;28;2322;-64
2022/03/01 03:44:12;;;;;;;;;;;;;;;21.29;40.77;102946.81;5081404;28;2244;-63
2022/03/01 03:46:39;;;;;;;;;;;;;;;21.27;40.92;102932.25;5076770;28;2015;-64
2022/03/01 03:49:05;;;;;;;;;;;;;;;21.29;40.93;102928.78;5080861;28;2247;-64
2022/03/01 03:51:32;;;;;;;;;;;;;;;21.29;41.04;102938.19;5081883;28;2180;-64
2022/03/01 03:53:59;;;;;;;;;;;;;;;21.29;40.98;102943.94;5078928;28;1954;-64
2022/03/01 03:56:25;;;;;;;;;;;;;;;21.29;41.05;102935.31;5076532;28;2230;-63
2022/03/01 03:58:51;;;;;;;;;;;;;;;21.04;41.29;102949.97;5075862;28;2252;-63
2022/03/01 04:01:18;;;;;;;;;;;;;;;20.57;42.30;102948.47;5078053;28;2267;-64
2022/03/01 04:03:45;;;;;;;;;;;;;;;20.42;42.64;102949.44;5079716;28;2302;-65
2022/03/01 04:06:11;;;;;;;;;;;;;;;20.38;43.02;102955.63;5079996;28;2254;-65
2022/03/01 04:08:37;;;;;;;;;;;;;;;20.37;43.10;102936.84;5086374;28;2227;-66
2022/03/01 04:11:04;;;;;;;;;;;;;;;20.38;43.00;102940.47;5079279;28;2305;-67
2022/03/01 04:13:30;;;;;;;;;;;;;;;20.36;42.96;102940.31;5073773;28;2126;-67
2022/03/01 04:15:59;;;;;;;;;;;;;;;20.34;42.89;102934.41;5077163;28;2275;-66
2022/03/01 04:18:26;;;;;;;;;;;;;;;20.32;42.89;102931.34;5085090;28;1985;-67
2022/03/01 04:20:52;;;;;;;;;;;;;;;20.31;42.86;102927.72;5084032;28;2537;-67
2022/03/01 04:23:18;;;;;;;;;;;;;;;20.30;42.83;102931.97;5081701;28;2001;-68
2022/03/01 04:25:45;;;;;;;;;;;;;;;20.29;42.84;102927.56;5078985;28;2310;-68
2022/03/01 04:28:11;;;;;;;;;;;;;;;20.29;42.76;102931.22;5083239;28;2270;-68
2022/03/01 04:30:38;;;;;;;;;;;;;;;20.29;42.76;102939.06;5083029;28;2297;-68
2022/03/01 04:33:04;;;;;;;;;;;;;;;20.28;42.91;102923.16;5083542;28;2197;-68
2022/03/01 04:35:30;;;;;;;;;;;;;;;20.27;42.76;102910.13;5080446;28;2048;-69
2022/03/01 04:37:56;;;;;;;;;;;;;;;20.27;42.89;102927.41;5074119;28;2200;-69
2022/03/01 04:40:23;;;;;;;;;;;;;;;20.26;42.90;102923.75;5076507;28;2313;-70
2022/03/01 04:42:49;;;;;;;;;;;;;;;20.27;42.69;102916.66;5084262;28;2117;-69
2022/03/01 04:45:16;;;;;;;;;;;;;;;20.28;42.77;102911.66;5078972;28;1735;-69
2022/03/01 04:47:43;;;;;;;;;;;;;;;20.28;42.91;102914.53;5080463;28;2255;-69
2022/03/01 04:50:09;;;;;;;;;;;;;;;20.29;42.85;102908.19;5077385;28;2198;-70
2022/03/01 04:52:36;;;;;;;;;;;;;;;20.30;42.89;102909.69;5082694;28;2196;-70
2022/03/01 04:55:02;;;;;;;;;;;;;;;20.32;42.97;102917.75;5079214;28;1587;-70
2022/03/01 04:57:28;;;;;;;;;;;;;;;20.33;43.05;102919.25;5084442;28;2301;-71
2022/03/01 04:59:55;;;;;;;;;;;;;;;20.35;42.95;102905.03;5075339;28;2178;-71
2022/03/01 05:02:21;;;;;;;;;;;;;;;20.34;43.14;102920.78;5078483;28;2134;-72
2022/03/01 05:04:48;;;;;;;;;;;;;;;20.33;43.07;102927.88;5078971;28;2703;-71
2022/03/01 05:07:16;;;;;;;;;;;;;;;20.33;43.02;102919.25;5078974;28;2168;-71
2022/03/01 05:09:42;;;;;;;;;;;;;;;20.34;43.03;102912.16;5075287;28;1638;-71
2022/03/01 05:12:09;;;;;;;;;;;;;;;20.33;42.95;102913.50;5077028;28;2307;-71
2022/03/01 05:14:35;;;;;;;;;;;;;;;20.32;42.79;102925.59;5076964;28;2306;-72
2022/03/01 05:17:02;;;;;;;;;;;;;;;20.29;42.79;102916.06;5078474;28;2542;-72
2022/03/01 05:19:29;;;;;;;;;;;;;;;20.29;42.79;102921.81;5086957;28;2129;-72
2022/03/01 05:21:55;;;;;;;;;;;;;;;20.29;42.88;102924.69;5080036;28;2193;-72
2022/03/01 05:24:21;;;;;;;;;;;;;;;20.27;42.73;102933.94;5083034;28;2298;-73
2022/03/01 05:26:50;;;;;;;;;;;;;;;20.25;42.82;102928.00;5085653;28;2231;-71
2022/03/01 05:29:16;;;;;;;;;;;;;;;20.25;42.75;102930.88;5082070;28;2239;-72
2022/03/01 05:31:42;;;;;;;;;;;;;;;20.23;42.76;102927.84;5077498;28;2267;-71
2022/03/01 05:34:09;;;;;;;;;;;;;;;20.24;42.73;102925.72;5079636;28;2566;-72
2022/03/01 05:36:36;;;;;;;;;;;;;;;20.24;42.75;102919.97;5083452;28;2267;-72
2022/03/01 05:39:02;;;;;;;;;;;;;;;20.26;42.81;102931.63;5074660;28;2781;-71
2022/03/01 05:41:28;;;;;;;;;;;;;;;20.25;43.04;102919.38;5081074;28;2347;-72
2022/03/01 05:43:55;;;;;;;;;;;;;;;20.26;42.87;102931.63;5077866;28;2473;-72
2022/03/01 05:46:26;;;;;;;;;;;;;;;19.76;44.04;102934.81;5078691;28;2219;-66
2022/03/01 05:48:53;;;;;;;;;;;;;;;19.53;44.91;102941.56;5080071;28;2052;-69
2022/03/01 05:51:19;;;;;;;;;;;;;;;19.41;45.21;102937.69;5077545;28;3332;-71
2022/03/01 05:53:46;;;;;;;;;;;;;;;19.36;45.33;102935.84;5079509;28;2124;-69
2022/03/01 05:56:13;;;;;;;;;;;;;;;19.36;45.59;102941.56;5083664;28;2399;-69
2022/03/01 05:58:39;;;;;;;;;;;;;;;19.35;45.70;102940.03;5087038;28;2255;-72
2022/03/01 06:01:05;;;;;;;;;;;;;;;19.36;45.93;102941.56;5081511;28;2194;-71
2022/03/01 06:03:32;;;;;;;;;;;;;;;19.35;45.57;102951.53;5083274;28;2350;-62
2022/03/01 06:05:58;;;;;;;;;;;;;;;17.63;37.59;102937.38;5079350;28;2093;-66
2022/03/01 06:08:25;;;;;;;;;;;;;;;17.80;39.70;102946.09;5074825;28;2138;-64
2022/03/01 06:10:51;;;;;;;;;;;;;;;18.76;40.71;102944.38;5072660;28;2101;-64
2022/03/01 06:13:17;;;;;;;;;;;;;;;19.10;41.58;102937.22;5082013;28;2208;-64
2022/03/01 06:15:44;;;;;;;;;;;;;;;19.22;41.91;102946.91;5082675;28;2350;-62
2022/03/01 06:18:12;;;;;;;;;;;;;;;19.28;42.30;102946.63;5077320;28;2259;-63
2022/03/01 06:20:38;;;;;;;;;;;;;;;19.28;42.76;102940.88;5081513;28;2223;-63
2022/03/01 06:23:06;;;;;;;;;;;;;;;19.31;42.99;102942.56;5082392;28;2267;-62
2022/03/01 06:25:32;;;;;;;;;;;;;;;19.31;43.23;102951.97;5073768;28;1497;-63
2022/03/01 06:27:59;;;;;;;;;;;;;;;19.32;43.41;102955.59;5080768;28;2242;-63
2022/03/01 06:30:25;;;;;;;;;;;;;;;19.32;43.71;102953.47;5075264;28;2133;-63
2022/03/01 06:32:51;;;;;;;;;;;;;;;19.33;43.81;102948.50;5080838;28;3056;-63
2022/03/01 06:35:18;;;;;;;;;;;;;;;19.32;44.04;102953.47;5079300;28;2319;-63
2022/03/01 06:37:50;;;;;;;;;;;;;;;19.32;44.30;102941.22;5079499;28;2140;-63
2022/03/01 06:40:18;;;;;;;;;;;;;;;19.22;43.49;102950.53;5078961;28;2310;-67
2022/03/01 06:42:47;;;;;;;;;;;;;;;19.29;44.46;102937.44;5077066;28;2239;-64
2022/03/01 06:45:13;;;;;;;;;;;;;;;19.35;44.61;102937.91;5081300;28;2197;-75
2022/03/01 06:47:39;;;;;;;;;;;;;;;19.39;44.52;102935.41;5078581;28;2474;-67
2022/03/01 06:50:06;;;;;;;;;;;;;;;19.41;44.46;102937.69;5076174;28;2239;-67
2022/03/01 06:52:34;;;;;;;;;;;;;;;19.44;44.79;102939.38;5080724;28;2258;-69
2022/03/01 06:55:01;;;;;;;;;;;;;;;19.45;44.85;102949.53;5080259;28;2314;-69
2022/03/01 06:57:28;;;;;;;;;;;;;;;19.46;44.77;102939.53;5075334;28;2275;-67
2022/03/01 06:59:54;;;;;;;;;;;;;;;19.48;44.94;102941.81;5071239;28;2155;-66
2022/03/01 07:02:21;;;;;;;;;;;;;;;19.48;44.99;102936.84;5077239;28;2359;-68
2022/03/01 07:04:47;;;;;;;;;;;;;;;19.49;45.15;102938.34;5078485;28;1604;-68
2022/03/01 07:07:14;;;;;;;;;;;;;;;19.51;45.11;102947.13;5079356;28;2311;-68
2022/03/01 07:09:40;;;;;;;;;;;;;;;19.48;45.14;102945.47;5082396;28;1613;-70
2022/03/01 07:12:06;;;;;;;;;;;;;;;19.49;45.14;102954.84;5075221;28;2362;-68
2022/03/01 07:14:33;;;;;;;;;;;;;;;19.48;45.30;102950.44;5083354;28;3004;-68
2022/03/01 07:16:59;;;;;;;;;;;;;;;19.50;45.21;102945.63;5077150;28;2032;-69
2022/03/01 07:19:26;;;;;;;;;;;;;;;19.50;45.44;102950.63;5084355;28;1560;-71
2022/03/01 07:21:52;;;;;;;;;;;;;;;19.50;45.46;102945.63;5077930;28;1580;-71
2022/03/01 07:24:18;;;;;;;;;;;;;;;19.51;45.56;102957.88;5077605;28;1545;-72
2022/03/01 07:26:45;;;;;;;;;;;;;;;19.51;45.63;102946.38;5079525;28;2170;-69
2022/03/01 07:29:12;;;;;;;;;;;;;;;19.52;45.63;102948.69;5079597;28;1798;-70
2022/03/01 07:31:38;;;;;;;;;;;;;;;19.52;45.45;102951.56;5076099;28;1623;-65
2022/03/01 07:34:04;;;;;;;;;;;;;;;19.54;45.53;102956.69;5073870;28;2064;-68
2022/03/01 07:36:31;;;;;;;;;;;;;;;19.53;45.61;102938.69;5072396;28;3196;-66
2022/03/01 07:38:57;;;;;;;;;;;;;;;19.54;45.56;102940.22;5076816;28;3083;-66
2022/03/01 07:41:24;;;;;;;;;;;;;;;19.54;45.62;102931.59;5078629;28;2378;-65
2022/03/01 07:43:50;;;;;;;;;;;;;;;19.57;45.57;102932.53;5079545;28;2510;-65
2022/03/01 07:46:16;;;;;;;;;;;;;;;19.55;45.48;102933.09;5077302;28;2142;-67
2022/03/01 07:48:43;;;;;;;;;;;;;;;19.53;45.64;102938.69;5075718;28;2236;-69
2022/03/01 07:51:09;;;;;;;;;;;;;;;19.50;45.92;102927.63;5075593;28;3176;-68
2022/03/01 07:53:35;;;;;;;;;;;;;;;19.58;45.72;102931.16;5075307;28;2331;-65
2022/03/01 07:56:02;;;;;;;;;;;;;;;19.54;42.76;102922.19;5070267;28;2753;-67
2022/03/01 07:58:28;;;;;;;;;;;;;;;19.45;44.81;102923.66;5067647;28;3314;-70
2022/03/01 08:00:55;;;;;;;;;;;;;;;19.54;45.24;102922.97;5077845;28;2509;-71
2022/03/01 08:03:22;;;;;;;;;;;;;;;19.58;45.48;102929.03;5079442;28;2299;-70
2022/03/01 08:05:51;;;;;;;;;;;;;;;19.62;45.49;102925.75;5075868;28;1994;-62
2022/03/01 08:08:17;;;;;;;;;;;;;;;19.62;45.67;102925.75;5079749;28;2576;-63
2022/03/01 08:10:44;;;;;;;;;;;;;;;19.62;45.78;102929.38;5076193;28;2549;-65
2022/03/01 08:13:33;;;;;;;;;;;;;;;19.62;45.94;102929.38;5077514;28;3092;-64
2022/03/01 08:16:00;;;;;;;;;;;;;;;19.60;46.14;102925.59;5061932;28;2332;-64
2022/03/01 08:18:26;;;;;;;;;;;;;;;19.62;46.22;102931.50;5076471;28;2484;-64
2022/03/01 08:20:54;;;;;;;;;;;;;;;19.62;46.36;102923.63;5079578;28;2270;-63
2022/03/01 08:23:20;;;;;;;;;;;;;;;19.64;46.44;102932.44;5077284;28;2332;-64
2022/03/01 08:25:46;;;;;;;;;;;;;;;19.64;46.17;102923.03;5079791;28;2384;-67
2022/03/01 08:28:13;;;;;;;;;;;;;;;19.66;46.35;102929.72;5077329;28;2270;-67
2022/03/01 08:30:39;;;;;;;;;;;;;;;19.69;46.37;102927.03;5075534;28;2579;-67
2022/03/01 08:33:05;;;;;;;;;;;;;;;19.69;46.22;102927.03;5082254;28;2258;-67
2022/03/01 08:35:37;;;;;;;;;;;;;;;19.66;46.39;102923.22;5081060;28;3003;-68
2022/03/01 08:38:04;;;;;;;;;;;;;;;19.65;46.36;102921.69;5084065;28;2330;-80
2022/03/01 08:40:32;;;;;;;;;;;;;;;19.67;46.26;102925.47;5081590;28;2283;-69
2022/03/01 08:42:58;;;;;;;;;;;;;;;19.72;46.18;102922.97;5082096;28;2481;-70
2022/03/01 08:45:24;;;;;;;;;;;;;;;19.71;46.05;102915.72;5077818;28;2445;-70
2022/03/01 08:47:51;;;;;;;;;;;;;;;19.72;45.89;102909.34;5080022;28;2195;-70
2022/03/01 08:50:17;;;;;;;;;;;;;;;19.72;45.78;102920.84;5080183;28;3085;-72
2022/03/01 08:53:04;;;;;;;;;;;;;;;19.72;45.69;102909.34;5084302;28;2481;-67
2022/03/01 08:55:30;;;;;;;;;;;;;;;19.75;45.63;102902.44;5082329;28;2412;-65
2022/03/01 08:57:57;;;;;;;;;;;;;;;19.74;45.61;102906.66;5080611;28;2239;-71
2022/03/01 09:00:23;;;;;;;;;;;;;;;19.72;45.66;102905.72;5083864;28;2021;-68
2022/03/01 09:02:50;;;;;;;;;;;;;;;19.75;45.59;102908.19;5070855;28;2283;-64
2022/03/01 09:05:16;;;;;;;;;;;;;;;19.69;45.86;102901.94;5078906;28;2115;-64
2022/03/01 09:07:43;;;;;;;;;;;;;;;19.69;46.01;102899.06;5082719;28;2274;-64
2022/03/01 09:10:09;;;;;;;;;;;;;;;19.66;46.08;102895.22;5075842;28;2196;-64
2022/03/01 09:12:35;;;;;;;;;;;;;;;19.66;45.85;102894.47;5077840;28;2484;-64
2022/03/01 09:15:02;;;;;;;;;;;;;;;19.64;45.69;102895.06;5083392;28;1998;-63
2022/03/01 09:17:29;;;;;;;;;;;;;;;19.65;45.59;102899.47;5080673;28;2265;-62
2022/03/01 09:19:55;;;;;;;;;;;;;;;19.30;40.43;102892.22;5077916;28;2030;-64
2022/03/01 09:22:21;;;;;;;;;;;;;;;19.46;43.39;102884.94;5080201;28;2104;-64
2022/03/01 09:24:48;;;;;;;;;;;;;;;19.54;43.60;102882.75;5077613;28;2228;-64
2022/03/01 09:27:14;;;;;;;;;;;;;;;19.40;35.94;102884.44;5077111;28;2398;-63
2022/03/01 09:29:41;;;;;;;;;;;;;;;18.56;31.96;102880.28;5080653;28;2322;-65
2022/03/01 09:32:07;;;;;;;;;;;;;;;18.20;32.06;102876.53;5079741;28;2216;-66
2022/03/01 09:34:33;;;;;;;;;;;;;;;19.01;35.19;102878.34;5083725;28;1959;-70
2022/03/01 09:37:00;;;;;;;;;;;;;;;19.58;36.78;102865.06;5089208;28;2215;-65
2022/03/01 09:39:26;;;;;;;;;;;;;;;20.05;36.77;102858.09;5076597;28;2219;-62
2022/03/01 09:41:53;;;;;;;;;;;;;;;21.44;35.26;102841.28;5075974;28;2160;-74
2022/03/01 09:44:19;;;;;;;;;;;;;;;21.53;35.20;102843.38;5063693;28;2232;-73
2022/03/01 09:46:47;;;;;;;;;;;;;;;21.59;35.77;102840.94;5066248;28;2262;-71
2022/03/01 09:49:13;;;;;;;;;;;;;;;21.62;35.82;102836.84;5081753;28;2393;-72
2022/03/01 09:51:39;;;;;;;;;;;;;;;21.69;36.17;102838.81;5068133;28;2577;-72
2022/03/01 09:54:06;;;;;;;;;;;;;;;21.78;36.61;102833.63;5084774;28;2297;-73
2022/03/01 09:56:35;;;;;;;;;;;;;;;21.84;36.86;102825.41;5085829;28;2278;-71
2022/03/01 09:59:01;;;;;;;;;;;;;;;21.84;37.13;102831.94;5088090;28;2297;-72
2022/03/01 10:01:28;;;;;;;;;;;;;;;21.88;37.32;102829.34;5086788;28;2282;-72
2022/03/01 10:04:05;;;;;;;;;;;;;;;21.90;37.31;102822.97;5082217;28;2380;-71
2022/03/01 10:06:38;;;;;;;;;;;;;;;21.93;37.79;102827.50;5080096;28;2064;-70
2022/03/01 10:09:10;;;;;;;;;;;;;;;22.05;37.64;102816.06;5081536;28;2410;-73
2022/03/01 10:11:37;;;;;;;;;;;;;;;22.12;37.72;102815.88;5067336;28;2281;-74
2022/03/01 10:14:03;;;;;;;;;;;;;;;22.15;37.64;102808.88;5087295;28;2329;-68
2022/03/01 10:16:36;;;;;;;;;;;;;;;22.07;37.58;102808.31;5088152;28;2286;-71
2022/03/01 10:19:03;;;;;;;;;;;;;;;22.02;38.05;102800.75;5083521;28;2024;-65
2022/03/01 10:21:30;;;;;;;;;;;;;;;22.01;38.32;102799.22;5082355;28;2369;-68
2022/03/01 10:23:57;;;;;;;;;;;;;;;22.17;38.16;102793.81;5081655;28;2331;-69
2022/03/01 10:26:24;;;;;;;;;;;;;;;22.24;38.27;102797.91;5083137;28;2160;-72
2022/03/01 10:28:51;;;;;;;;;;;;;;;22.24;38.56;102781.38;5088914;28;2342;-70
2022/03/01 10:31:18;;;;;;;;;;;;;;;22.26;38.31;102789.41;5064204;28;2367;-72
2022/03/01 10:33:58;;;;;;;;;;;;;;;22.24;38.77;102781.38;5081994;28;2000;-71
2022/03/01 10:36:25;;;;;;;;;;;;;;;22.26;38.74;102786.53;5084947;28;2239;-69
2022/03/01 10:38:54;;;;;;;;;;;;;;;22.26;38.80;102783.63;5086269;28;2275;-71
2022/03/01 10:41:24;;;;;;;;;;;;;;;22.32;38.54;102779.03;5081884;28;2357;-68
2022/03/01 10:43:52;;;;;;;;;;;;;;;22.32;38.92;102775.41;5080773;28;2345;-71
2022/03/01 10:46:18;;;;;;;;;;;;;;;22.29;38.97;102782.41;5089056;28;2295;-69
2022/03/01 10:48:45;;;;;;;;;;;;;;;22.29;39.13;102776.66;5082338;28;2259;-69
2022/03/01 10:51:11;;;;;;;;;;;;;;;22.36;38.87;102769.91;5082019;28;2686;-68
2022/03/01 10:53:38;;;;;;;;;;;;;;;22.32;39.17;102775.41;5078993;28;2156;-68
2022/03/01 10:56:05;;;;;;;;;;;;;;;22.31;39.45;102773.88;5079953;28;2370;-65
2022/03/01 10:58:32;;;;;;;;;;;;;;;22.43;39.68;102763.19;5074273;28;3169;-73
2022/03/01 11:00:58;;;;;;;;;;;;;;;22.49;39.10;102754.91;5083433;28;2541;-67
2022/03/01 11:03:25;;;;;;;;;;;;;;;22.43;39.60;102757.41;5080780;28;2385;-67
2022/03/01 11:05:52;;;;;;;;;;;;;;;22.41;39.46;102760.16;5079810;28;2231;-70
2022/03/01 11:08:30;;;;;;;;;;;;;;;22.43;39.28;102753.78;5084894;28;2429;-72
2022/03/01 11:10:56;;;;;;;;;;;;;;;22.48;39.16;102764.97;5082184;28;2337;-65
2022/03/01 11:13:23;;;;;;;;;;;;;;;22.44;39.47;102753.13;5077903;28;2276;-67
2022/03/01 11:15:52;;;;;;;;;;;;;;;22.45;39.59;102746.00;5065291;28;2315;-69
2022/03/01 11:18:22;;;;;;;;;;;;;;;22.50;39.88;102732.59;5092555;28;2088;-72
2022/03/01 11:20:49;;;;;;;;;;;;;;;22.54;39.46;102736.50;5085803;28;2140;-74
2022/03/01 11:23:18;;;;;;;;;;;;;;;22.56;39.19;102730.09;5081005;28;1865;-69
2022/03/01 11:25:46;;;;;;;;;;;;;;;22.51;39.60;102729.06;5079949;28;2340;-68
2022/03/01 11:28:14;;;;;;;;;;;;;;;22.50;39.74;102721.78;5081691;28;2076;-68
2022/03/01 11:30:44;;;;;;;;;;;;;;;22.49;39.97;102719.53;5079373;28;2125;-68
2022/03/01 11:33:10;;;;;;;;;;;;;;;22.55;39.84;102714.16;5079207;28;2425;-71
2022/03/01 11:35:43;;;;;;;;;;;;;;;22.63;39.78;102711.06;5083270;28;2227;-71
2022/03/01 11:38:15;;;;;;;;;;;;;;;22.67;39.73;102712.06;5077120;28;2101;-72
2022/03/01 11:40:47;;;;;;;;;;;;;;;22.65;39.55;102709.03;5079172;28;2266;-72
2022/03/01 11:43:14;;;;;;;;;;;;;;;22.46;40.00;102712.84;5082443;28;2075;-73
2022/03/01 11:45:44;;;;;;;;;;;;;;;22.66;39.82;102715.59;5089708;28;2040;-74
2022/03/01 11:48:13;;;;;;;;;;;;;;;22.65;39.38;102714.06;5079284;28;2112;-74
2022/03/01 11:50:45;;;;;;;;;;;;;;;22.59;39.83;102706.53;5081783;28;2388;-73
2022/03/01 11:53:12;;;;;;;;;;;;;;;22.44;38.89;102706.94;5079576;28;2180;-58
2022/03/01 11:55:43;;;;;;;;;;;;;;;22.12;39.24;102699.69;5042987;28;2650;-59
2022/03/01 11:58:09;;;;;;;;;;;;;;;22.12;39.29;102693.94;5039602;28;2145;-59
2022/03/01 12:00:37;;;;;;;;;;;;;;;22.13;39.58;102689.69;5055483;28;2096;-67
2022/03/01 12:03:04;;;;;;;;;;;;;;;22.12;39.78;102688.16;5076139;28;2347;-70
2022/03/01 12:05:35;;;;;;;;;;;;;;;22.10;39.90;102688.03;5058456;28;2203;-67
2022/03/01 12:08:02;;;;;;;;;;;;;;;22.11;39.37;102689.53;5078173;28;2224;-68
2022/03/01 12:11:10;;;;;;;;;;;;;;;22.08;39.46;102685.78;5070866;28;2071;-67
2022/03/01 12:13:40;;;;;;;;;;;;;;;22.07;39.78;102681.34;5068414;28;2016;-67
2022/03/01 12:16:07;;;;;;;;;;;;;;;22.06;39.72;102682.75;5073326;28;1826;-67
2022/03/01 12:18:34;;;;;;;;;;;;;;;22.07;39.60;102681.34;5082317;28;2186;-68
2022/03/01 12:21:01;;;;;;;;;;;;;;;22.07;39.80;102675.59;5071057;28;1747;-69
2022/03/01 12:23:28;;;;;;;;;;;;;;;22.07;39.65;102687.13;5072819;28;2215;-69
2022/03/01 12:25:55;;;;;;;;;;;;;;;22.06;39.82;102676.97;5080398;28;2124;-70
2022/03/01 12:28:21;;;;;;;;;;;;;;;22.05;39.97;102683.34;5073094;28;2086;-70
2022/03/01 12:30:48;;;;;;;;;;;;;;;22.03;39.82;102683.97;5074362;28;2025;-68
2022/03/01 12:33:15;;;;;;;;;;;;;;;22.02;39.24;102685.34;5083672;28;2158;-61
2022/03/01 12:35:41;;;;;;;;;;;;;;;22.11;39.53;102675.88;5078658;28;2063;-60
2022/03/01 12:38:08;;;;;;;;;;;;;;;22.15;39.06;102681.16;5084038;28;2353;-59
2022/03/01 12:40:35;;;;;;;;;;;;;;;22.20;39.07;102670.66;5081740;28;2096;-60
2022/03/01 12:43:01;;;;;;;;;;;;;;;22.23;39.12;102669.44;5075861;28;2025;-60
2022/03/01 12:45:31;;;;;;;;;;;;;;;22.18;39.49;102663.38;5074502;28;1924;-62
2022/03/01 12:48:04;;;;;;;;;;;;;;;22.23;39.55;102663.66;5076546;28;2029;-62
2022/03/01 12:50:31;;;;;;;;;;;;;;;22.24;39.15;102668.84;5079090;28;2184;-58